Time;durP1;ratioP1;P1;durP2;ratioP2;P2;SDS_P1;SDS_P2;PMS_P1;PMS_P2;Temp;Humidity;BMP_temperature;BMP_pressure;BME280_temperature;BME280_humidity;BME280_pressure;Samples;Min_cycle;Max_cycle;Signal;HPM_P1;HPM_P2
2021/03/25 00:01:38;;;;;;;5.20;3.67;;;6.40;91.40;;;;;;5053802;28;20079;-79
2021/03/25 00:04:05;;;;;;;7.45;4.40;;;6.50;91.00;;;;;;5069284;28;20035;-79
2021/03/25 00:06:37;;;;;;;9.30;4.95;;;7.00;90.70;;;;;;5072108;28;20131;-79
2021/03/25 00:09:08;;;;;;;7.07;4.78;;;7.10;90.50;;;;;;5072110;28;20020;-79
2021/03/25 00:11:34;;;;;;;9.48;5.22;;;7.10;90.20;;;;;;5071574;28;20021;-79
2021/03/25 00:14:00;;;;;;;7.32;5.10;;;7.20;90.90;;;;;;5059780;28;20029;-80
2021/03/25 00:16:26;;;;;;;9.25;5.93;;;7.40;90.50;;;;;;5053465;28;20028;-79
2021/03/25 00:18:52;;;;;;;8.68;5.68;;;7.50;90.10;;;;;;5067267;28;20024;-79
2021/03/25 00:21:17;;;;;;;8.85;5.75;;;7.70;90.50;;;;;;5071014;28;20500;-79
2021/03/25 00:23:43;;;;;;;7.72;5.50;;;7.80;89.80;;;;;;5060935;28;20042;-79
2021/03/25 00:26:09;;;;;;;8.18;5.90;;;7.90;89.40;;;;;;5066176;28;20029;-79
2021/03/25 00:28:35;;;;;;;8.07;5.75;;;8.00;88.50;;;;;;5071303;28;20465;-80
2021/03/25 00:31:01;;;;;;;7.00;5.45;;;8.20;88.50;;;;;;5063395;28;20044;-79
2021/03/25 00:33:26;;;;;;;13.80;7.32;;;8.40;87.30;;;;;;5053452;28;20067;-79
2021/03/25 00:35:53;;;;;;;11.13;6.60;;;8.40;88.10;;;;;;5062484;28;20054;-79
2021/03/25 00:38:19;;;;;;;10.10;6.50;;;8.50;88.30;;;;;;5071451;28;20028;-79
2021/03/25 00:40:49;;;;;;;11.40;6.63;;;8.50;89.80;;;;;;5063668;28;20056;-79
2021/03/25 00:43:19;;;;;;;11.32;6.82;;;8.40;90.30;;;;;;5065400;28;20029;-79
2021/03/25 00:45:47;;;;;;;12.68;7.68;;;8.50;90.60;;;;;;5052796;28;20504;-79
2021/03/25 00:48:15;;;;;;;10.32;7.15;;;8.50;90.90;;;;;;5053034;28;20385;-79
2021/03/25 00:50:45;;;;;;;15.07;7.32;;;8.70;91.00;;;;;;5052624;28;20031;-79
2021/03/25 00:53:13;;;;;;;12.20;7.70;;;8.70;91.50;;;;;;5068326;28;20024;-79
2021/03/25 00:55:40;;;;;;;12.60;7.60;;;8.60;91.90;;;;;;5070995;28;20021;-79
2021/03/25 00:58:05;;;;;;;11.93;7.90;;;8.70;91.60;;;;;;5053490;28;20016;-79
2021/03/25 01:00:35;;;;;;;14.27;7.38;;;8.70;91.70;;;;;;5053322;28;20025;-79
2021/03/25 01:03:01;;;;;;;14.38;7.80;;;8.70;91.80;;;;;;5071189;28;20024;-79
2021/03/25 01:05:28;;;;;;;9.40;7.00;;;8.70;92.00;;;;;;5070318;28;20108;-79
2021/03/25 01:07:54;;;;;;;12.07;8.00;;;8.60;92.30;;;;;;5070316;28;20366;-79
2021/03/25 01:10:27;;;;;;;10.77;7.18;;;8.80;92.10;;;;;;5063360;28;20131;-79
2021/03/25 01:12:53;;;;;;;9.77;7.45;;;8.90;91.70;;;;;;5070934;28;20548;-79
2021/03/25 01:15:19;;;;;;;14.68;7.15;;;8.90;91.90;;;;;;5071165;28;20092;-79
2021/03/25 01:17:57;;;;;;;9.88;7.15;;;9.00;91.30;;;;;;5070580;28;20040;-79
2021/03/25 01:20:31;;;;;;;9.48;8.00;;;9.10;91.30;;;;;;5052879;28;20029;-79
2021/03/25 01:22:58;;;;;;;9.90;7.43;;;9.00;91.70;;;;;;5052181;28;20020;-79
2021/03/25 01:25:28;;;;;;;12.38;8.00;;;8.90;92.10;;;;;;5056319;28;20021;-79
2021/03/25 01:28:02;;;;;;;14.20;8.10;;;9.00;92.00;;;;;;5068233;28;20069;-79
2021/03/25 01:30:30;;;;;;;9.52;7.15;;;9.00;92.20;;;;;;5066458;28;20055;-79
2021/03/25 01:32:58;;;;;;;9.63;7.55;;;9.00;92.30;;;;;;5070793;28;20029;-79
2021/03/25 01:35:23;;;;;;;10.35;7.22;;;9.00;92.40;;;;;;5070154;28;20067;-79
2021/03/25 01:37:50;;;;;;;12.10;8.57;;;9.10;92.60;;;;;;5075061;28;20028;-79
2021/03/25 01:40:32;;;;;;;11.20;8.27;;;9.10;92.20;;;;;;5070624;28;20552;-79
2021/03/25 01:43:19;;;;;;;14.80;9.57;;;9.10;92.30;;;;;;5058968;28;20027;-80
2021/03/25 01:45:50;;;;;;;12.98;10.75;;;9.20;92.40;;;;;;5061040;28;20036;-79
2021/03/25 01:48:20;;;;;;;14.02;8.98;;;9.00;93.10;;;;;;5059343;28;20021;-79
2021/03/25 01:50:45;;;;;;;15.83;10.87;;;9.00;93.50;;;;;;5058722;28;20029;-79
2021/03/25 01:53:36;;;;;;;16.08;10.15;;;9.00;93.90;;;;;;5062960;28;20021;-79
2021/03/25 01:56:16;;;;;;;15.15;10.75;;;9.20;93.40;;;;;;5076759;28;20035;-79
2021/03/25 01:59:21;;;;;;;18.88;10.68;;;9.30;93.30;;;;;;5077702;28;20028;-79
2021/03/25 02:01:56;;;;;;;16.20;11.27;;;9.30;93.30;;;;;;5062554;28;20075;-79
2021/03/25 02:04:44;;;;;;;11.88;10.52;;;9.20;93.80;;;;;;5070671;28;20385;-79
2021/03/25 02:07:28;;;;;;;15.13;10.90;;;9.10;94.00;;;;;;5062421;28;20021;-79
2021/03/25 02:10:07;;;;;;;18.10;11.27;;;9.10;94.10;;;;;;5070720;28;20793;-80
2021/03/25 02:13:01;;;;;;;18.98;11.90;;;9.20;94.00;;;;;;5058367;28;20436;-80
2021/03/25 02:15:48;;;;;;;16.77;11.23;;;9.20;93.80;;;;;;5068213;28;20063;-80
2021/03/25 02:18:17;;;;;;;16.40;11.20;;;9.10;94.40;;;;;;5058515;28;20029;-79
2021/03/25 02:21:14;;;;;;;17.67;11.27;;;9.20;94.40;;;;;;5058224;28;20079;-79
2021/03/25 02:23:55;;;;;;;19.20;11.68;;;9.20;94.20;;;;;;5074325;28;20534;-79
2021/03/25 02:26:29;;;;;;;20.02;11.98;;;9.10;94.90;;;;;;5076557;28;20024;-79
2021/03/25 02:29:25;;;;;;;17.52;11.38;;;9.10;95.00;;;;;;5059869;28;20048;-79
2021/03/25 02:31:58;;;;;;;15.80;11.45;;;9.10;94.80;;;;;;5073838;28;20016;-79
2021/03/25 02:34:29;;;;;;;15.07;12.23;;;9.00;95.40;;;;;;5076940;28;20449;-79
2021/03/25 02:36:58;;;;;;;;;;;9.10;95.00;;;;;;5076610;28;20420;-79
2021/03/25 02:39:38;;;;;;;18.35;12.65;;;9.00;95.30;;;;;;5076440;28;19912;-79
2021/03/25 02:42:05;;;;;;;;;;;9.00;95.50;;;;;;5077107;28;20033;-79
2021/03/25 02:44:36;;;;;;;14.38;11.65;;;9.10;95.00;;;;;;5074896;28;20402;-79
2021/03/25 02:47:10;;;;;;;16.67;11.18;;;9.20;94.80;;;;;;5060162;28;20373;-80
2021/03/25 02:49:43;;;;;;;19.52;12.68;;;9.20;95.00;;;;;;5054477;28;20041;-80
2021/03/25 02:52:22;;;;;;;20.02;12.18;;;9.20;94.80;;;;;;5055331;28;20064;-79
2021/03/25 02:54:49;;;;;;;18.50;13.07;;;9.10;95.30;;;;;;5055081;28;20033;-79
2021/03/25 02:57:22;;;;;;;15.98;12.77;;;9.00;96.10;;;;;;5055021;28;20016;-80
2021/03/25 02:59:50;;;;;;;14.63;12.23;;;9.00;95.90;;;;;;5054918;28;20021;-79
2021/03/25 03:02:31;;;;;;;24.33;11.90;;;9.10;95.90;;;;;;5060425;28;20043;-79
2021/03/25 03:05:12;;;;;;;16.80;12.55;;;9.00;95.90;;;;;;5070307;28;20028;-79
2021/03/25 03:07:43;;;;;;;21.90;12.25;;;9.10;95.80;;;;;;5073046;28;20020;-80
2021/03/25 03:10:14;;;;;;;17.27;13.15;;;9.10;96.10;;;;;;5073377;28;20059;-79
2021/03/25 03:12:45;;;;;;;20.05;13.57;;;9.00;96.60;;;;;;5062315;28;20048;-79
2021/03/25 03:15:36;;;;;;;20.38;11.98;;;9.00;96.60;;;;;;5069404;28;20037;-79
2021/03/25 03:18:42;;;;;;;19.27;12.52;;;9.00;96.70;;;;;;5074818;28;20032;-79
2021/03/25 03:21:20;;;;;;;16.98;12.35;;;8.90;96.80;;;;;;5064365;28;20040;-80
2021/03/25 03:23:46;;;;;;;19.80;12.70;;;9.00;97.00;;;;;;5075275;28;20460;-79
2021/03/25 03:26:19;;;;;;;21.88;13.73;;;8.90;96.70;;;;;;5075023;28;20039;-79
2021/03/25 03:28:52;;;;;;;18.50;12.43;;;8.90;97.00;;;;;;5074889;28;20453;-79
2021/03/25 03:31:23;;;;;;;18.08;11.75;;;9.00;96.70;;;;;;5075065;28;20103;-79
2021/03/25 03:33:59;;;;;;;17.73;12.45;;;9.00;96.70;;;;;;5074367;28;20542;-79
2021/03/25 03:36:25;;;;;;;16.65;12.20;;;9.10;96.20;;;;;;5074978;28;20098;-79
2021/03/25 03:39:01;;;;;;;16.23;13.35;;;9.10;96.60;;;;;;5074819;28;20025;-79
2021/03/25 03:41:38;;;;;;;14.63;12.27;;;9.00;96.80;;;;;;5074497;28;20033;-79
2021/03/25 03:44:09;;;;;;;16.05;11.52;;;9.00;97.50;;;;;;5074877;28;20032;-79
2021/03/25 03:46:36;;;;;;;14.20;11.77;;;9.00;97.40;;;;;;5074633;28;20483;-79
2021/03/25 03:49:10;;;;;;;15.35;12.20;;;8.90;98.10;;;;;;5074394;28;20035;-79
2021/03/25 03:51:54;;;;;;;17.33;11.80;;;8.80;98.20;;;;;;5074677;28;20500;-79
2021/03/25 03:54:20;;;;;;;15.55;11.43;;;9.00;97.60;;;;;;5074634;28;20039;-79
2021/03/25 03:57:10;;;;;;;18.08;12.55;;;8.90;97.70;;;;;;5074545;28;20349;-79
2021/03/25 04:00:04;;;;;;;19.95;12.30;;;9.00;97.70;;;;;;5073988;28;20385;-79
2021/03/25 04:02:37;;;;;;;19.65;11.65;;;9.10;97.30;;;;;;5074110;28;20028;-80
2021/03/25 04:05:17;;;;;;;19.38;12.38;;;9.10;96.80;;;;;;5074090;28;20071;-79
2021/03/25 04:07:53;;;;;;;18.13;12.65;;;9.10;96.90;;;;;;5074217;28;20033;-79
2021/03/25 04:10:28;;;;;;;18.92;12.73;;;9.10;97.10;;;;;;5074167;28;20082;-79
2021/03/25 04:12:58;;;;;;;18.00;12.30;;;9.10;97.20;;;;;;5074270;28;20025;-79
2021/03/25 04:15:27;;;;;;;21.52;11.80;;;9.10;97.20;;;;;;5074143;28;20107;-79
2021/03/25 04:18:34;;;;;;;17.65;12.48;;;9.10;96.90;;;;;;5073578;28;20056;-79
2021/03/25 04:21:08;;;;;;;18.88;12.45;;;9.10;97.30;;;;;;5073961;28;20068;-79
2021/03/25 04:23:38;;;;;;;18.83;11.65;;;9.10;96.90;;;;;;5074040;28;20017;-79
2021/03/25 04:26:25;;;;;;;16.13;12.07;;;9.10;96.70;;;;;;5073823;28;20032;-79
2021/03/25 04:29:07;;;;;;;19.65;13.18;;;9.10;97.40;;;;;;5073642;28;20025;-79
2021/03/25 04:31:34;;;;;;;16.85;11.88;;;9.10;97.10;;;;;;5073596;28;20037;-79
2021/03/25 04:34:02;;;;;;;18.95;11.50;;;9.10;97.10;;;;;;5073597;28;20508;-79
2021/03/25 04:36:36;;;;;;;20.52;12.75;;;9.00;97.40;;;;;;5073634;28;20060;-79
2021/03/25 04:39:05;;;;;;;14.65;11.38;;;9.10;97.30;;;;;;5073467;28;20086;-79
2021/03/25 04:41:31;;;;;;;20.45;10.73;;;9.10;97.10;;;;;;5073448;28;20031;-79
2021/03/25 04:44:04;;;;;;;17.98;11.20;;;9.00;96.90;;;;;;5073454;28;20028;-79
2021/03/25 04:47:07;;;;;;;21.58;11.73;;;9.10;96.80;;;;;;5073111;28;20059;-80
2021/03/25 04:49:42;;;;;;;17.38;11.23;;;9.10;96.80;;;;;;5073545;28;20025;-79
2021/03/25 04:52:24;;;;;;;19.70;12.13;;;9.00;97.50;;;;;;5073623;28;20111;-79
2021/03/25 04:54:51;;;;;;;18.80;10.90;;;9.00;97.50;;;;;;5073406;28;20044;-79
2021/03/25 04:57:32;;;;;;;15.30;11.18;;;8.90;97.30;;;;;;5072180;28;20385;-79
2021/03/25 05:00:03;;;;;;;23.67;11.55;;;9.00;97.70;;;;;;5073200;28;20025;-79
2021/03/25 05:02:32;;;;;;;17.65;11.68;;;8.90;97.70;;;;;;5073114;28;20055;-79
2021/03/25 05:05:00;;;;;;;18.40;11.77;;;9.00;98.60;;;;;;5073232;28;20074;-79
2021/03/25 05:07:30;;;;;;;16.95;11.35;;;8.90;99.00;;;;;;5073051;28;20016;-79
2021/03/25 05:09:57;;;;;;;17.50;11.70;;;8.90;97.80;;;;;;5073067;28;20052;-79
2021/03/25 05:12:24;;;;;;;18.42;12.10;;;9.00;97.90;;;;;;5072955;28;20021;-79
2021/03/25 05:14:54;;;;;;;13.77;10.68;;;8.90;97.40;;;;;;5072930;28;20090;-79
2021/03/25 05:17:32;;;;;;;14.95;9.98;;;8.90;97.80;;;;;;5073196;28;20067;-79
2021/03/25 05:20:04;;;;;;;13.70;9.40;;;8.90;96.80;;;;;;5073125;28;20036;-79
2021/03/25 05:23:00;;;;;;;14.13;10.23;;;8.90;97.10;;;;;;5073095;28;20070;-79
2021/03/25 05:25:41;;;;;;;16.35;10.68;;;9.00;96.90;;;;;;5072876;28;20460;-79
2021/03/25 05:28:37;;;;;;;15.65;10.77;;;9.00;97.00;;;;;;5072970;28;20099;-80
2021/03/25 05:31:06;;;;;;;17.25;10.95;;;9.00;97.50;;;;;;5072717;28;20409;-79
2021/03/25 05:33:33;;;;;;;16.58;10.35;;;9.20;97.60;;;;;;5073109;28;20480;-79
2021/03/25 05:36:07;;;;;;;14.68;10.82;;;9.20;97.20;;;;;;5072823;28;20032;-79
2021/03/25 05:38:33;;;;;;;15.30;11.43;;;9.10;97.70;;;;;;5073016;28;20033;-79
2021/03/25 05:41:34;;;;;;;20.00;11.10;;;9.10;97.70;;;;;;5072747;28;20530;-79
2021/03/25 05:44:28;;;;;;;15.93;10.68;;;9.10;97.90;;;;;;5010265;28;20121;-79
2021/03/25 05:46:57;;;;;;;18.70;11.50;;;9.10;98.20;;;;;;4967844;28;20047;-79
2021/03/25 05:50:08;;;;;;;20.13;12.02;;;9.10;97.80;;;;;;4971290;28;20046;-79
2021/03/25 05:52:52;;;;;;;15.43;11.85;;;9.10;97.30;;;;;;4968650;28;20586;-80
2021/03/25 05:55:44;;;;;;;14.50;10.63;;;9.10;97.20;;;;;;4950851;29;20032;-79
2021/03/25 05:58:31;;;;;;;13.30;11.07;;;9.00;98.20;;;;;;4954761;28;20066;-79
2021/03/25 06:00:57;;;;;;;21.85;12.65;;;9.00;99.60;;;;;;4967891;28;20043;-79
2021/03/25 06:03:24;;;;;;;18.10;11.07;;;9.00;98.40;;;;;;4955363;28;20030;-79
2021/03/25 06:05:54;;;;;;;19.48;12.05;;;9.00;98.90;;;;;;4970704;28;20039;-80
2021/03/25 06:08:27;;;;;;;12.52;11.23;;;9.00;98.50;;;;;;4954983;28;20447;-80
2021/03/25 06:11:20;;;;;;;14.82;12.20;;;9.00;99.10;;;;;;4971111;28;20089;-79
2021/03/25 06:13:45;;;;;;;14.82;10.57;;;9.00;98.70;;;;;;4945884;28;20042;-79
2021/03/25 06:16:22;;;;;;;15.05;10.90;;;9.00;98.20;;;;;;4970741;28;20039;-79
2021/03/25 06:19:21;;;;;;;24.08;11.43;;;9.00;97.60;;;;;;4977827;28;20034;-79
2021/03/25 06:22:02;;;;;;;19.03;11.97;;;9.00;97.80;;;;;;5010287;28;20042;-79
2021/03/25 06:24:45;;;;;;;13.63;10.73;;;9.10;98.00;;;;;;5046455;28;20075;-79
2021/03/25 06:27:41;;;;;;;18.13;10.95;;;9.10;98.40;;;;;;5070462;28;20021;-80
2021/03/25 06:30:15;;;;;;;20.15;16.17;;;9.10;98.40;;;;;;5057693;28;20055;-79
2021/03/25 06:32:49;;;;;;;16.30;11.38;;;9.10;98.60;;;;;;5082417;28;20497;-81
2021/03/25 06:35:22;;;;;;;20.00;12.05;;;9.10;98.60;;;;;;5075891;28;20072;-80
2021/03/25 06:37:59;;;;;;;18.92;12.23;;;9.10;98.30;;;;;;5065576;28;20033;-80
2021/03/25 06:40:40;;;;;;;26.45;20.17;;;9.10;98.30;;;;;;5075919;28;20029;-79
2021/03/25 06:43:34;;;;;;;17.40;12.38;;;9.00;99.90;;;;;;5074904;28;20026;-79
2021/03/25 06:46:06;;;;;;;24.45;13.88;;;8.90;98.50;;;;;;5067248;28;20032;-79
2021/03/25 06:48:45;;;;;;;28.20;13.07;;;8.90;99.30;;;;;;5058778;28;20088;-79
2021/03/25 06:51:24;;;;;;;15.55;12.18;;;9.00;98.00;;;;;;5070333;28;20115;-78
2021/03/25 06:54:20;;;;;;;18.80;12.23;;;9.10;98.10;;;;;;5075647;28;20338;-79
2021/03/25 06:56:48;;;;;;;19.70;12.27;;;9.10;98.50;;;;;;5069133;28;20513;-79
2021/03/25 06:59:32;;;;;;;17.05;11.63;;;9.20;98.20;;;;;;5057738;28;20033;-79
2021/03/25 07:02:25;;;;;;;32.85;12.18;;;9.20;97.90;;;;;;5055375;28;20534;-79
2021/03/25 07:04:53;;;;;;;18.75;11.40;;;9.30;98.80;;;;;;5062400;28;20039;-79
2021/03/25 07:07:30;;;;;;;18.45;11.98;;;9.30;98.50;;;;;;5055143;28;20025;-79
2021/03/25 07:09:57;;;;;;;20.13;12.32;;;9.30;98.20;;;;;;5071328;28;20036;-79
2021/03/25 07:12:28;;;;;;;18.48;11.38;;;9.40;98.20;;;;;;5063008;28;20021;-79
2021/03/25 07:14:54;;;;;;;28.65;11.95;;;9.30;97.90;;;;;;5058823;28;20029;-79
2021/03/25 07:17:35;;;;;;;19.45;12.77;;;9.30;98.30;;;;;;5056887;28;20037;-80
2021/03/25 07:20:16;;;;;;;24.90;12.10;;;9.30;98.40;;;;;;5074559;28;20443;-81
2021/03/25 07:22:41;;;;;;;19.77;11.85;;;9.30;98.50;;;;;;5075159;28;20036;-81
2021/03/25 07:25:19;;;;;;;18.05;12.40;;;9.40;98.50;;;;;;5074274;28;20036;-81
2021/03/25 07:27:46;;;;;;;15.38;11.55;;;9.40;97.90;;;;;;5073519;28;20388;-81
2021/03/25 07:30:16;;;;;;;13.77;11.30;;;9.50;97.40;;;;;;5065574;28;20563;-80
2021/03/25 07:32:52;;;;;;;32.15;16.77;;;9.50;97.50;;;;;;5053701;28;20021;-80
2021/03/25 07:35:34;;;;;;;24.45;11.40;;;9.60;97.00;;;;;;5053039;28;20079;-80
2021/03/25 07:38:15;;;;;;;18.83;11.43;;;9.60;96.60;;;;;;5053948;28;20116;-80
2021/03/25 07:40:43;;;;;;;19.17;13.23;;;9.60;97.10;;;;;;5064673;28;20036;-80
2021/03/25 07:43:21;;;;;;;15.05;11.57;;;9.70;96.70;;;;;;5073791;28;20380;-80
2021/03/25 07:45:47;;;;;;;17.50;12.18;;;9.60;97.00;;;;;;5073788;28;20473;-81
2021/03/25 07:48:25;;;;;;;18.30;11.52;;;9.50;97.40;;;;;;5074093;28;20031;-80
2021/03/25 07:51:09;;;;;;;20.25;11.65;;;9.40;98.00;;;;;;5074109;28;20036;-80
2021/03/25 07:53:35;;;;;;;17.85;11.88;;;9.50;97.80;;;;;;5073804;28;20024;-81
2021/03/25 07:56:16;;;;;;;21.10;13.45;;;9.50;97.60;;;;;;5073941;28;20111;-80
2021/03/25 07:58:47;;;;;;;22.30;12.20;;;9.70;97.80;;;;;;5073937;28;20377;-80
2021/03/25 08:01:19;;;;;;;17.52;12.30;;;9.70;97.30;;;;;;5073596;28;20029;-80
2021/03/25 08:03:49;;;;;;;17.00;11.73;;;9.70;97.20;;;;;;5072604;28;20504;-80
2021/03/25 08:06:36;;;;;;;15.25;11.52;;;9.90;96.30;;;;;;5073625;28;20032;-80
2021/03/25 08:09:05;;;;;;;17.95;11.82;;;9.80;96.00;;;;;;5073367;28;20393;-81
2021/03/25 08:11:33;;;;;;;15.88;10.82;;;9.80;96.20;;;;;;5073507;28;20020;-80
2021/03/25 08:14:14;;;;;;;13.55;11.00;;;9.80;95.90;;;;;;5073522;28;20032;-80
2021/03/25 08:16:50;;;;;;;14.90;11.48;;;10.00;95.70;;;;;;5073574;28;20029;-80
2021/03/25 08:20:03;;;;;;;23.80;12.70;;;10.00;96.00;;;;;;5073296;28;20035;-80
2021/03/25 08:22:49;;;;;;;14.45;9.95;;;10.00;95.40;;;;;;5055535;28;20381;-80
2021/03/25 08:25:36;;;;;;;18.70;10.57;;;10.00;95.20;;;;;;5073080;28;20059;-80
2021/03/25 08:28:32;;;;;;;16.42;11.05;;;10.20;95.70;;;;;;5073344;28;20017;-81
2021/03/25 08:31:25;;;;;;;15.70;10.90;;;10.30;94.50;;;;;;5073158;28;20073;-80
2021/03/25 08:33:59;;;;;;;18.33;10.00;;;10.30;94.60;;;;;;5073145;28;20020;-80
2021/03/25 08:36:44;;;;;;;16.15;10.43;;;10.40;94.30;;;;;;5072969;28;20446;-80
2021/03/25 08:39:26;;;;;;;15.35;9.80;;;10.30;93.90;;;;;;5072879;28;20032;-81
2021/03/25 08:42:24;;;;;;;14.88;9.95;;;10.40;94.10;;;;;;5073098;28;20036;-80
2021/03/25 08:44:58;;;;;;;16.63;9.93;;;10.50;93.60;;;;;;5072438;28;20051;-81
2021/03/25 08:47:39;;;;;;;16.55;10.60;;;10.50;93.30;;;;;;5072217;28;20086;-81
2021/03/25 08:50:36;;;;;;;15.30;9.73;;;10.50;93.60;;;;;;5073068;28;20105;-80
2021/03/25 08:53:29;;;;;;;18.38;9.90;;;10.60;93.00;;;;;;5072576;28;20021;-81
2021/03/25 08:55:58;;;;;;;15.70;10.20;;;10.50;93.20;;;;;;5011111;28;20038;-81
2021/03/25 08:58:38;;;;;;;15.47;9.13;;;10.60;93.50;;;;;;5010916;28;20092;-81
2021/03/25 09:01:10;;;;;;;13.38;8.70;;;10.60;92.90;;;;;;5010857;28;20281;-81
2021/03/25 09:03:48;;;;;;;12.05;8.90;;;10.80;92.70;;;;;;5010907;28;20034;-80
2021/03/25 09:06:16;;;;;;;12.23;9.00;;;10.80;92.30;;;;;;5010821;28;20038;-80
2021/03/25 09:08:44;;;;;;;18.80;10.55;;;10.90;92.20;;;;;;5010699;28;20120;-81
2021/03/25 09:11:14;;;;;;;9.95;8.68;;;11.00;92.10;;;;;;5010919;28;20612;-80
2021/03/25 09:13:50;;;;;;;23.08;9.73;;;11.00;91.40;;;;;;5010480;28;20069;-80
2021/03/25 09:16:30;;;;;;;11.48;8.95;;;11.20;91.60;;;;;;5011111;28;20037;-81
2021/03/25 09:18:57;;;;;;;14.35;9.50;;;11.20;91.30;;;;;;5010738;28;20034;-80
2021/03/25 09:21:25;;;;;;;10.88;8.77;;;11.10;91.00;;;;;;5010195;28;20116;-81
2021/03/25 09:24:00;;;;;;;14.45;9.43;;;11.10;91.20;;;;;;5010746;28;20394;-80
2021/03/25 09:26:25;;;;;;;16.75;7.80;;;11.00;91.40;;;;;;5010461;28;20184;-81
2021/03/25 09:28:59;;;;;;;13.75;9.27;;;11.20;91.60;;;;;;5010429;28;20042;-80
2021/03/25 09:31:36;;;;;;;13.13;9.38;;;11.00;91.60;;;;;;5010335;28;20561;-81
2021/03/25 09:34:11;;;;;;;13.70;9.50;;;11.20;91.70;;;;;;5070701;28;20036;-81
2021/03/25 09:36:36;;;;;;;13.70;9.98;;;11.30;91.10;;;;;;5071842;28;20036;-80
2021/03/25 09:39:02;;;;;;;13.23;9.82;;;11.40;90.80;;;;;;5072255;28;20029;-80
2021/03/25 09:41:28;;;;;;;19.42;10.48;;;11.30;91.20;;;;;;5070606;28;20040;-81
2021/03/25 09:44:10;;;;;;;15.00;8.57;;;11.30;90.70;;;;;;5072188;28;20590;-81
2021/03/25 09:46:44;;;;;;;15.85;9.85;;;11.20;90.80;;;;;;5072049;28;20503;-81
2021/03/25 09:49:16;;;;;;;16.10;8.70;;;11.20;90.30;;;;;;5072338;28;20029;-80
2021/03/25 09:51:42;;;;;;;13.63;8.77;;;11.30;90.80;;;;;;5071791;28;20082;-81
2021/03/25 09:54:28;;;;;;;15.82;9.35;;;11.30;90.80;;;;;;5072174;28;20025;-81
2021/03/25 09:57:30;;;;;;;15.55;9.38;;;11.30;91.30;;;;;;5071984;28;20086;-81
2021/03/25 09:59:56;;;;;;;14.23;8.88;;;11.50;91.00;;;;;;5076126;28;20044;-81
2021/03/25 10:02:40;;;;;;;12.88;7.97;;;11.80;90.70;;;;;;5075872;28;20068;-81
2021/03/25 10:05:27;;;;;;;19.17;9.07;;;11.90;89.80;;;;;;5075722;28;20042;-81
2021/03/25 10:07:59;;;;;;;18.13;10.70;;;11.90;89.90;;;;;;5075932;28;20052;-81
2021/03/25 10:10:45;;;;;;;16.80;9.38;;;11.50;89.20;;;;;;5075963;28;20485;-81
2021/03/25 10:13:14;;;;;;;12.13;8.63;;;11.40;89.90;;;;;;5075570;28;20037;-81
2021/03/25 10:15:47;;;;;;;11.77;7.38;;;11.50;89.20;;;;;;5075671;28;20072;-81
2021/03/25 10:18:16;;;;;;;10.55;7.22;;;11.40;87.80;;;;;;5075827;28;20032;-81
2021/03/25 10:20:46;;;;;;;12.20;7.72;;;11.70;89.30;;;;;;5075266;28;20037;-81
2021/03/25 10:23:24;;;;;;;44.95;8.95;;;11.70;86.50;;;;;;5075796;28;20029;-81
2021/03/25 10:25:53;;;;;;;11.55;8.13;;;11.70;87.00;;;;;;5074165;28;20028;-81
2021/03/25 10:28:29;;;;;;;14.70;8.10;;;11.60;87.20;;;;;;5075727;28;20103;-81
2021/03/25 10:31:01;;;;;;;12.80;8.65;;;11.60;87.80;;;;;;5075383;28;20045;-81
2021/03/25 10:33:28;;;;;;;11.18;8.07;;;11.50;86.80;;;;;;5075146;28;20035;-81
2021/03/25 10:35:59;;;;;;;11.45;8.93;;;11.50;88.00;;;;;;5075173;28;20024;-81
2021/03/25 10:38:29;;;;;;;10.00;7.90;;;11.40;87.30;;;;;;5075484;28;20120;-81
2021/03/25 10:41:04;;;;;;;10.27;7.68;;;11.40;88.90;;;;;;5075433;28;20036;-81
2021/03/25 10:43:32;;;;;;;9.00;8.00;;;11.80;88.00;;;;;;5075289;28;20078;-81
2021/03/25 10:46:00;;;;;;;13.02;8.70;;;11.50;85.00;;;;;;5075131;28;20020;-81
2021/03/25 10:48:37;;;;;;;11.07;9.07;;;11.70;86.50;;;;;;5074890;28;20480;-81
2021/03/25 10:51:11;;;;;;;16.48;9.13;;;11.80;85.80;;;;;;5075276;28;20016;-81
2021/03/25 10:53:47;;;;;;;13.40;8.18;;;12.10;84.10;;;;;;5074972;28;20025;-81
2021/03/25 10:56:18;;;;;;;10.18;7.93;;;12.30;83.60;;;;;;5075138;28;20388;-81
2021/03/25 10:59:17;;;;;;;15.30;7.35;;;12.40;82.90;;;;;;5074990;28;20031;-81
2021/03/25 11:01:55;;;;;;;11.70;7.78;;;12.40;82.80;;;;;;5063459;28;20077;-81
2021/03/25 11:04:25;;;;;;;11.32;8.05;;;12.40;81.50;;;;;;5074730;28;20064;-81
2021/03/25 11:06:52;;;;;;;11.43;8.32;;;12.00;82.20;;;;;;5074827;28;20056;-81
2021/03/25 11:09:28;;;;;;;14.35;8.60;;;12.20;83.00;;;;;;5074097;28;20027;-81
2021/03/25 11:12:17;;;;;;;15.80;8.02;;;12.50;84.00;;;;;;5074794;28;20089;-81
2021/03/25 11:14:51;;;;;;;9.90;7.57;;;12.70;81.50;;;;;;5072677;28;20404;-81
2021/03/25 11:17:25;;;;;;;15.07;8.60;;;12.70;81.50;;;;;;5074339;28;20415;-81
2021/03/25 11:19:54;;;;;;;11.55;8.55;;;12.70;82.10;;;;;;5074547;28;20023;-81
2021/03/25 11:22:20;;;;;;;11.00;7.90;;;12.70;84.10;;;;;;5074595;28;20063;-81
2021/03/25 11:24:47;;;;;;;9.88;8.30;;;12.80;85.30;;;;;;5074342;28;20103;-81
2021/03/25 11:27:22;;;;;;;9.60;7.30;;;13.00;83.70;;;;;;5074586;28;20500;-81
2021/03/25 11:30:00;;;;;;;10.40;7.50;;;13.00;82.70;;;;;;5074053;28;20064;-81
2021/03/25 11:32:39;;;;;;;13.85;7.53;;;13.10;82.10;;;;;;5074084;28;20107;-82
2021/03/25 11:35:27;;;;;;;9.40;8.18;;;13.00;82.10;;;;;;5074258;28;20103;-81
2021/03/25 11:37:55;;;;;;;13.65;8.05;;;12.80;82.30;;;;;;5066246;28;20040;-81
2021/03/25 11:40:43;;;;;;;10.45;7.80;;;12.70;82.00;;;;;;5074344;28;20074;-81
2021/03/25 11:43:16;;;;;;;14.68;7.25;;;12.70;83.70;;;;;;5074132;28;20021;-82
2021/03/25 11:45:53;;;;;;;12.07;8.45;;;12.40;82.50;;;;;;5073730;28;20032;-81
2021/03/25 11:48:26;;;;;;;11.50;7.85;;;12.60;83.40;;;;;;5074243;28;20107;-82
2021/03/25 11:50:54;;;;;;;13.82;7.60;;;12.70;83.10;;;;;;5074012;28;20499;-81
2021/03/25 11:53:41;;;;;;;7.68;6.97;;;12.90;82.90;;;;;;5074025;28;20048;-81
2021/03/25 11:56:51;;;;;;;11.05;7.65;;;12.90;81.60;;;;;;5074010;28;20032;-81
2021/03/25 11:59:17;;;;;;;12.10;8.20;;;12.80;82.80;;;;;;5039867;28;20495;-81
2021/03/25 12:01:43;;;;;;;11.55;7.57;;;12.80;80.70;;;;;;5073253;28;20100;-81
2021/03/25 12:04:15;;;;;;;12.95;8.80;;;12.80;80.90;;;;;;5073926;28;20484;-81
2021/03/25 12:07:11;;;;;;;10.43;7.63;;;13.00;81.50;;;;;;5073478;28;20504;-81
2021/03/25 12:09:56;;;;;;;9.43;7.65;;;13.20;81.40;;;;;;5073695;28;20162;-81
2021/03/25 12:12:21;;;;;;;8.25;7.15;;;13.30;78.20;;;;;;5073632;28;20016;-81
2021/03/25 12:14:47;;;;;;;9.75;6.75;;;13.30;77.10;;;;;;5073355;28;20528;-81
2021/03/25 12:17:13;;;;;;;9.70;7.07;;;13.30;77.40;;;;;;5073540;28;20059;-81
2021/03/25 12:19:39;;;;;;;11.40;7.82;;;13.30;77.60;;;;;;5073376;28;20029;-81
2021/03/25 12:22:09;;;;;;;10.45;7.13;;;13.40;76.60;;;;;;5072405;28;20074;-81
2021/03/25 12:24:35;;;;;;;7.97;6.88;;;13.40;76.60;;;;;;5073249;28;20028;-81
2021/03/25 12:27:01;;;;;;;10.15;7.10;;;13.50;74.70;;;;;;5073309;28;20473;-81
2021/03/25 12:29:26;;;;;;;11.77;7.72;;;13.50;75.10;;;;;;5072821;28;20047;-81
2021/03/25 12:31:52;;;;;;;8.73;7.50;;;13.50;74.90;;;;;;5072793;28;20053;-81
2021/03/25 12:34:18;;;;;;;10.13;7.57;;;13.60;75.40;;;;;;5073224;28;20025;-81
2021/03/25 12:36:45;;;;;;;10.70;6.97;;;13.80;73.50;;;;;;5072933;28;20024;-81
2021/03/25 12:39:11;;;;;;;9.20;6.85;;;13.70;72.20;;;;;;5073062;28;20021;-81
2021/03/25 12:41:41;;;;;;;9.65;7.55;;;13.70;74.10;;;;;;5072749;28;20036;-81
2021/03/25 12:44:08;;;;;;;13.85;8.50;;;14.20;72.80;;;;;;5072792;28;20075;-81
2021/03/25 12:46:34;;;;;;;11.70;8.10;;;14.60;72.00;;;;;;5072884;28;20025;-81
2021/03/25 12:49:00;;;;;;;13.40;7.70;;;14.90;71.90;;;;;;5073100;28;20021;-82
2021/03/25 12:51:26;;;;;;;14.73;7.55;;;14.90;69.40;;;;;;5072947;28;20021;-81
2021/03/25 12:53:52;;;;;;;13.00;7.63;;;15.20;70.80;;;;;;5072606;28;20032;-81
2021/03/25 12:56:34;;;;;;;10.80;7.35;;;15.30;69.30;;;;;;5072757;28;20460;-82
2021/03/25 12:59:09;;;;;;;11.55;7.78;;;15.40;70.40;;;;;;5072481;28;20070;-82
2021/03/25 13:01:35;;;;;;;8.40;7.57;;;15.60;67.70;;;;;;5072773;28;20028;-82
2021/03/25 13:04:01;;;;;;;9.63;7.15;;;15.70;67.90;;;;;;5072345;28;20036;-82
2021/03/25 13:06:27;;;;;;;9.93;7.38;;;15.30;64.60;;;;;;5072850;28;20028;-82
2021/03/25 13:08:54;;;;;;;10.30;7.75;;;15.50;65.30;;;;;;5071187;28;20051;-82
2021/03/25 13:11:25;;;;;;;17.30;7.78;;;15.80;67.20;;;;;;5072659;28;20476;-82
2021/03/25 13:13:52;;;;;;;9.80;6.72;;;15.90;65.90;;;;;;5072057;28;20098;-82
2021/03/25 13:16:19;;;;;;;10.07;7.53;;;15.70;66.20;;;;;;5071151;28;20419;-82
2021/03/25 13:18:45;;;;;;;8.30;7.28;;;15.70;67.70;;;;;;5072451;28;20025;-82
2021/03/25 13:21:12;;;;;;;8.68;7.43;;;15.80;65.40;;;;;;5072446;28;20507;-82